ITY9760 LIRF-GCTS
Flight info
| Callsign | ITY9760 |
|---|---|
| Flight time | N/A |
| Altitude | 37000 |
| Route | ESINO DCT ABIDU DCT OKIDO DCT GOKMI DCT SUPUX DCT ETOIL DCT REQIN/N0454F350 UG26 ZEM/N0455F340 UG26 CHE UA411 ORSUP/N0458F360 UA411 FES/N0461F350 UM372 MAK UG850 BIDLA/N0457F370 UG850 ADM UN869 RUSIK |
| Aircraft | A320/M-SDE3FGHIRWY/LB1 |
Departure
| Time | 2026-05-06 08:19 |
|---|---|
| Airport | Rome–Fiumicino Leonardo da Vinci International Airport (LIRF) |
Arrival
| Time | N/A |
|---|---|
| Airport | Tenerife Sur Airport (GCTS) |
| Time | Latitude | Longitude | Altitude | Speed | Heading |
|---|---|---|---|---|---|
| 2026-05-06 07:31 | 41.79693 | 12.25614 | 14 ft | 0 kts | 295° |
| 2026-05-06 08:08 | 41.79688 | 12.25629 | 14 ft | 4 kts | 295° |
| 2026-05-06 08:08 | 41.79678 | 12.25657 | 17 ft | 3 kts | 295° |
| 2026-05-06 08:08 | 41.79667 | 12.25677 | 14 ft | 4 kts | 7° |
| 2026-05-06 08:08 | 41.79651 | 12.25671 | 14 ft | 0 kts | 25° |
| 2026-05-06 08:09 | 41.79666 | 12.25680 | 14 ft | 0 kts | 25° |
| 2026-05-06 08:12 | 41.79682 | 12.25690 | 14 ft | 13 kts | 25° |
| 2026-05-06 08:12 | 41.79791 | 12.25761 | 15 ft | 18 kts | 26° |
| 2026-05-06 08:12 | 41.79897 | 12.25838 | 15 ft | 17 kts | 24° |
| 2026-05-06 08:12 | 41.80000 | 12.25902 | 14 ft | 15 kts | 25° |
| 2026-05-06 08:13 | 41.80090 | 12.25957 | 14 ft | 13 kts | 25° |
| 2026-05-06 08:13 | 41.80166 | 12.26004 | 15 ft | 11 kts | 25° |
| 2026-05-06 08:13 | 41.80263 | 12.26064 | 16 ft | 18 kts | 25° |
| 2026-05-06 08:13 | 41.80374 | 12.26133 | 15 ft | 17 kts | 25° |
| 2026-05-06 08:14 | 41.80474 | 12.26176 | 16 ft | 14 kts | 6° |
| 2026-05-06 08:14 | 41.80531 | 12.26250 | 16 ft | 12 kts | 68° |
| 2026-05-06 08:14 | 41.80560 | 12.26355 | 16 ft | 13 kts | 70° |
| 2026-05-06 08:14 | 41.80592 | 12.26470 | 16 ft | 14 kts | 70° |
| 2026-05-06 08:15 | 41.80626 | 12.26595 | 15 ft | 15 kts | 70° |
| 2026-05-06 08:15 | 41.80663 | 12.26730 | 16 ft | 16 kts | 70° |
| 2026-05-06 08:15 | 41.80704 | 12.26878 | 13 ft | 18 kts | 70° |
| 2026-05-06 08:15 | 41.80732 | 12.26980 | 13 ft | 7 kts | 70° |
| 2026-05-06 08:16 | 41.80751 | 12.27030 | 13 ft | 5 kts | 47° |
| 2026-05-06 08:16 | 41.80812 | 12.27040 | 13 ft | 11 kts | 348° |
| 2026-05-06 08:16 | 41.80880 | 12.27006 | 13 ft | 10 kts | 340° |
| 2026-05-06 08:16 | 41.80937 | 12.26977 | 13 ft | 8 kts | 336° |
| 2026-05-06 08:17 | 41.80957 | 12.26935 | 12 ft | 5 kts | 274° |
| 2026-05-06 08:17 | 41.80951 | 12.26901 | 13 ft | 2 kts | 250° |
| 2026-05-06 08:17 | 41.80948 | 12.26891 | 14 ft | 0 kts | 250° |
| 2026-05-06 08:18 | 41.80944 | 12.26877 | 14 ft | 11 kts | 250° |
| 2026-05-06 08:18 | 41.80824 | 12.26442 | 18 ft | 85 kts | 250° |
| 2026-05-06 08:18 | 41.80545 | 12.25434 | 19 ft | 143 kts | 249° |
| 2026-05-06 08:19 | 41.80139 | 12.23983 | 66 ft | 182 kts | 247° |
| 2026-05-06 08:19 | 41.79724 | 12.22392 | 716 ft | 180 kts | 244° |
| 2026-05-06 08:19 | 41.79348 | 12.20766 | 1318 ft | 190 kts | 257° |
| 2026-05-06 08:19 | 41.79317 | 12.18893 | 1648 ft | 210 kts | 264° |
| 2026-05-06 08:20 | 41.79299 | 12.16942 | 2275 ft | 208 kts | 261° |
| 2026-05-06 08:20 | 41.78972 | 12.15115 | 2955 ft | 199 kts | 239° |
| 2026-05-06 08:20 | 41.78181 | 12.13637 | 3602 ft | 194 kts | 221° |
| 2026-05-06 08:20 | 41.77174 | 12.12409 | 4219 ft | 195 kts | 221° |
| 2026-05-06 08:21 | 41.76181 | 12.11206 | 4858 ft | 196 kts | 222° |
| 2026-05-06 08:21 | 41.75100 | 12.10010 | 5244 ft | 212 kts | 216° |
| 2026-05-06 08:21 | 41.73804 | 12.08856 | 5481 ft | 236 kts | 214° |
| 2026-05-06 08:21 | 41.72354 | 12.07643 | 5873 ft | 252 kts | 214° |
| 2026-05-06 08:22 | 41.70838 | 12.06399 | 6529 ft | 258 kts | 214° |
| 2026-05-06 08:22 | 41.69301 | 12.05133 | 7267 ft | 260 kts | 214° |
| 2026-05-06 08:22 | 41.67756 | 12.03854 | 7995 ft | 263 kts | 214° |
| 2026-05-06 08:22 | 41.66197 | 12.02558 | 8719 ft | 265 kts | 215° |
| 2026-05-06 08:23 | 41.64627 | 12.01249 | 9465 ft | 267 kts | 215° |
| 2026-05-06 08:23 | 41.63046 | 11.99928 | 10155 ft | 270 kts | 215° |
| 2026-05-06 08:23 | 41.61391 | 11.98539 | 10362 ft | 292 kts | 215° |
| 2026-05-06 08:23 | 41.59598 | 11.97031 | 10491 ft | 315 kts | 215° |
| 2026-05-06 08:24 | 41.57687 | 11.95427 | 10695 ft | 332 kts | 214° |
| 2026-05-06 08:24 | 41.55705 | 11.93773 | 11204 ft | 339 kts | 214° |
| 2026-05-06 08:24 | 41.53690 | 11.92101 | 11798 ft | 343 kts | 214° |
| 2026-05-06 08:24 | 41.51655 | 11.90413 | 12396 ft | 347 kts | 214° |
| 2026-05-06 08:25 | 41.49598 | 11.88701 | 12995 ft | 350 kts | 214° |
| 2026-05-06 08:25 | 41.47519 | 11.86975 | 13583 ft | 354 kts | 214° |
| 2026-05-06 08:25 | 41.45415 | 11.85232 | 14107 ft | 358 kts | 214° |
| 2026-05-06 08:25 | 41.43293 | 11.83473 | 14641 ft | 361 kts | 214° |
| 2026-05-06 08:26 | 41.41186 | 11.81633 | 15176 ft | 362 kts | 220° |
| 2026-05-06 08:26 | 41.39370 | 11.79319 | 15704 ft | 363 kts | 232° |
| 2026-05-06 08:26 | 41.37971 | 11.76526 | 16221 ft | 364 kts | 243° |
| 2026-05-06 08:26 | 41.37039 | 11.73381 | 16727 ft | 367 kts | 252° |
| 2026-05-06 08:27 | 41.36282 | 11.70118 | 17243 ft | 370 kts | 252° |
| 2026-05-06 08:27 | 41.35516 | 11.66837 | 17778 ft | 373 kts | 252° |
| 2026-05-06 08:27 | 41.34753 | 11.63575 | 18313 ft | 375 kts | 252° |
| 2026-05-06 08:27 | 41.33975 | 11.60253 | 18782 ft | 377 kts | 252° |
| 2026-05-06 08:28 | 41.33191 | 11.56915 | 19261 ft | 379 kts | 252° |
| 2026-05-06 08:28 | 41.32399 | 11.53559 | 19730 ft | 381 kts | 252° |
| 2026-05-06 08:28 | 41.31604 | 11.50193 | 20196 ft | 382 kts | 252° |
| 2026-05-06 08:28 | 41.30807 | 11.46814 | 20651 ft | 384 kts | 251° |
| 2026-05-06 08:29 | 41.30006 | 11.43421 | 21081 ft | 385 kts | 251° |
| 2026-05-06 08:29 | 41.29200 | 11.40013 | 21520 ft | 387 kts | 251° |
| 2026-05-06 08:29 | 41.28389 | 11.36593 | 21939 ft | 389 kts | 251° |
| 2026-05-06 08:29 | 41.27571 | 11.33156 | 22350 ft | 391 kts | 251° |
| 2026-05-06 08:30 | 41.26748 | 11.29711 | 22777 ft | 392 kts | 251° |
| 2026-05-06 08:30 | 41.25920 | 11.26248 | 23164 ft | 394 kts | 251° |
| 2026-05-06 08:30 | 41.25092 | 11.22777 | 23555 ft | 395 kts | 251° |
| 2026-05-06 08:30 | 41.24261 | 11.19293 | 23872 ft | 396 kts | 251° |
| 2026-05-06 08:31 | 41.23426 | 11.15803 | 24181 ft | 398 kts | 251° |
| 2026-05-06 08:31 | 41.22586 | 11.12303 | 24506 ft | 398 kts | 251° |
| 2026-05-06 08:31 | 41.21744 | 11.08801 | 24832 ft | 398 kts | 251° |
| 2026-05-06 08:31 | 41.20900 | 11.05294 | 25139 ft | 399 kts | 251° |
| 2026-05-06 08:32 | 41.20054 | 11.01779 | 25435 ft | 400 kts | 251° |
| 2026-05-06 08:32 | 41.19205 | 10.98258 | 25723 ft | 401 kts | 251° |
| 2026-05-06 08:32 | 41.18351 | 10.94722 | 25998 ft | 403 kts | 251° |
| 2026-05-06 08:32 | 41.17492 | 10.91178 | 26274 ft | 404 kts | 251° |
| 2026-05-06 08:33 | 41.16626 | 10.87627 | 26541 ft | 405 kts | 250° |
| 2026-05-06 08:33 | 41.15756 | 10.84068 | 26806 ft | 406 kts | 250° |
| 2026-05-06 08:33 | 41.14884 | 10.80496 | 27064 ft | 407 kts | 250° |
| 2026-05-06 08:33 | 41.14014 | 10.76918 | 27310 ft | 408 kts | 250° |
| 2026-05-06 08:34 | 41.13140 | 10.73328 | 27549 ft | 409 kts | 250° |
| 2026-05-06 08:34 | 41.11393 | 10.66172 | 28001 ft | 412 kts | 250° |
| 2026-05-06 08:34 | 41.10510 | 10.62560 | 28222 ft | 413 kts | 250° |
| 2026-05-06 08:35 | 41.09624 | 10.58940 | 28422 ft | 414 kts | 250° |
| 2026-05-06 08:35 | 41.08733 | 10.55312 | 28641 ft | 414 kts | 250° |
| 2026-05-06 08:35 | 41.07838 | 10.51676 | 28845 ft | 414 kts | 250° |
| 2026-05-06 08:35 | 41.06945 | 10.48056 | 29172 ft | 412 kts | 250° |
| 2026-05-06 08:36 | 41.06057 | 10.44463 | 29479 ft | 410 kts | 250° |
| 2026-05-06 08:36 | 41.05168 | 10.40879 | 29772 ft | 409 kts | 250° |
| 2026-05-06 08:36 | 41.04284 | 10.37309 | 30048 ft | 407 kts | 250° |
| 2026-05-06 08:36 | 41.03402 | 10.33749 | 30283 ft | 406 kts | 250° |
| 2026-05-06 08:37 | 41.02520 | 10.30197 | 30513 ft | 405 kts | 250° |
| 2026-05-06 08:37 | 41.01637 | 10.26657 | 30739 ft | 405 kts | 250° |
| 2026-05-06 08:37 | 41.00752 | 10.23120 | 30950 ft | 404 kts | 250° |
| 2026-05-06 08:37 | 40.99870 | 10.19594 | 31199 ft | 404 kts | 250° |
| 2026-05-06 08:38 | 40.98990 | 10.16071 | 31431 ft | 402 kts | 250° |
| 2026-05-06 08:38 | 40.98113 | 10.12562 | 31658 ft | 401 kts | 250° |
| 2026-05-06 08:38 | 40.97236 | 10.09063 | 31884 ft | 401 kts | 250° |
| 2026-05-06 08:38 | 40.96357 | 10.05568 | 32109 ft | 400 kts | 250° |
| 2026-05-06 08:39 | 40.95775 | 10.03257 | 32265 ft | 399 kts | 250° |
| 2026-05-06 08:39 | 40.94901 | 9.99781 | 32486 ft | 398 kts | 250° |
| 2026-05-06 08:39 | 40.94027 | 9.96311 | 32712 ft | 397 kts | 250° |
| 2026-05-06 08:39 | 40.93150 | 9.92847 | 32929 ft | 396 kts | 250° |
| 2026-05-06 08:40 | 40.92277 | 9.89397 | 33138 ft | 396 kts | 250° |
| 2026-05-06 08:40 | 40.91406 | 9.85947 | 33351 ft | 395 kts | 250° |
| 2026-05-06 08:40 | 40.90540 | 9.82507 | 33585 ft | 394 kts | 249° |
| 2026-05-06 08:40 | 40.89676 | 9.79092 | 33868 ft | 391 kts | 249° |
| 2026-05-06 08:41 | 40.88810 | 9.75687 | 33962 ft | 390 kts | 249° |
| 2026-05-06 08:41 | 40.87081 | 9.68914 | 33976 ft | 388 kts | 249° |
| 2026-05-06 08:42 | 40.85349 | 9.62156 | 33974 ft | 388 kts | 249° |
| 2026-05-06 08:42 | 40.83617 | 9.55400 | 33976 ft | 388 kts | 249° |
| 2026-05-06 08:43 | 40.81886 | 9.48650 | 33976 ft | 388 kts | 249° |
| 2026-05-06 08:43 | 40.80151 | 9.41905 | 33972 ft | 388 kts | 249° |
| 2026-05-06 08:44 | 40.78425 | 9.35219 | 33977 ft | 388 kts | 249° |
| 2026-05-06 08:44 | 40.76669 | 9.28443 | 33978 ft | 388 kts | 248° |
| 2026-05-06 08:45 | 40.74928 | 9.21764 | 33984 ft | 388 kts | 249° |
| 2026-05-06 08:45 | 40.73174 | 9.15019 | 33984 ft | 389 kts | 249° |
| 2026-05-06 08:46 | 40.71416 | 9.08278 | 34009 ft | 389 kts | 248° |
| 2026-05-06 08:46 | 40.69651 | 9.01546 | 33987 ft | 388 kts | 248° |
| 2026-05-06 08:47 | 40.67891 | 8.94828 | 33988 ft | 388 kts | 248° |
| 2026-05-06 08:47 | 40.66124 | 8.88114 | 33989 ft | 388 kts | 248° |
| 2026-05-06 08:48 | 40.64350 | 8.81399 | 33988 ft | 388 kts | 248° |
| 2026-05-06 08:48 | 40.62567 | 8.74695 | 33990 ft | 388 kts | 248° |
| 2026-05-06 08:49 | 40.60789 | 8.67992 | 33996 ft | 388 kts | 247° |
| 2026-05-06 08:49 | 40.59009 | 8.61299 | 33987 ft | 388 kts | 247° |
| 2026-05-06 08:50 | 40.57220 | 8.54609 | 33997 ft | 387 kts | 247° |
| 2026-05-06 08:50 | 40.55433 | 8.47931 | 33992 ft | 387 kts | 247° |
| 2026-05-06 08:51 | 40.53640 | 8.41251 | 33975 ft | 388 kts | 247° |
| 2026-05-06 08:51 | 40.51842 | 8.34570 | 33975 ft | 388 kts | 247° |
| 2026-05-06 08:52 | 40.50044 | 8.27908 | 33979 ft | 386 kts | 246° |
| 2026-05-06 08:52 | 40.48247 | 8.21263 | 33981 ft | 386 kts | 246° |
| 2026-05-06 08:53 | 40.46445 | 8.14618 | 33985 ft | 386 kts | 246° |
| 2026-05-06 08:53 | 40.44632 | 8.07981 | 33989 ft | 386 kts | 246° |
| 2026-05-06 08:54 | 40.42648 | 8.01464 | 33990 ft | 382 kts | 238° |
| 2026-05-06 08:54 | 40.39390 | 7.96098 | 34012 ft | 380 kts | 224° |
| 2026-05-06 08:55 | 40.35552 | 7.91276 | 33992 ft | 383 kts | 224° |
| 2026-05-06 08:55 | 40.31705 | 7.86433 | 33990 ft | 383 kts | 224° |
| 2026-05-06 08:56 | 40.27858 | 7.81588 | 33993 ft | 383 kts | 224° |
| 2026-05-06 08:56 | 40.24013 | 7.76746 | 33989 ft | 384 kts | 224° |
| 2026-05-06 08:57 | 40.20168 | 7.71911 | 33989 ft | 382 kts | 223° |
| 2026-05-06 08:57 | 40.16335 | 7.67112 | 33989 ft | 381 kts | 223° |
| 2026-05-06 08:58 | 40.12496 | 7.62325 | 33990 ft | 381 kts | 223° |
| 2026-05-06 08:58 | 40.08662 | 7.57534 | 33993 ft | 383 kts | 224° |
| 2026-05-06 08:59 | 40.04790 | 7.52705 | 33989 ft | 386 kts | 224° |
| 2026-05-06 08:59 | 40.00899 | 7.47873 | 33978 ft | 386 kts | 223° |
| 2026-05-06 09:00 | 39.97024 | 7.43048 | 33990 ft | 385 kts | 223° |
| 2026-05-06 09:00 | 39.93151 | 7.38238 | 33996 ft | 384 kts | 223° |
| 2026-05-06 09:01 | 39.89278 | 7.33439 | 33997 ft | 384 kts | 223° |
| 2026-05-06 09:01 | 39.85425 | 7.28672 | 33989 ft | 385 kts | 223° |
| 2026-05-06 09:02 | 39.81542 | 7.23885 | 33986 ft | 385 kts | 223° |
| 2026-05-06 09:02 | 39.77663 | 7.19112 | 33991 ft | 383 kts | 223° |
| 2026-05-06 09:03 | 39.73794 | 7.14360 | 33989 ft | 382 kts | 223° |
| 2026-05-06 09:03 | 39.69928 | 7.09609 | 33992 ft | 383 kts | 223° |
| 2026-05-06 09:04 | 39.66069 | 7.04860 | 33990 ft | 382 kts | 223° |
| 2026-05-06 09:04 | 39.62199 | 7.00116 | 33995 ft | 382 kts | 223° |
| 2026-05-06 09:05 | 39.58324 | 6.95389 | 33987 ft | 383 kts | 222° |
| 2026-05-06 09:05 | 39.54439 | 6.90660 | 33995 ft | 383 kts | 222° |
| 2026-05-06 09:06 | 39.50556 | 6.85935 | 33990 ft | 383 kts | 222° |
| 2026-05-06 09:06 | 39.46673 | 6.81202 | 33988 ft | 383 kts | 222° |
| 2026-05-06 09:07 | 39.42784 | 6.76476 | 33987 ft | 384 kts | 222° |
| 2026-05-06 09:07 | 39.38897 | 6.71750 | 33988 ft | 384 kts | 222° |
| 2026-05-06 09:08 | 39.34994 | 6.67028 | 33989 ft | 385 kts | 222° |
| 2026-05-06 09:08 | 39.31086 | 6.62313 | 33989 ft | 385 kts | 222° |
| 2026-05-06 09:09 | 39.27177 | 6.57595 | 33990 ft | 385 kts | 222° |
| 2026-05-06 09:09 | 39.23268 | 6.52886 | 33991 ft | 385 kts | 222° |
| 2026-05-06 09:10 | 39.19355 | 6.48184 | 33993 ft | 384 kts | 222° |
| 2026-05-06 09:10 | 39.15427 | 6.43469 | 33989 ft | 389 kts | 221° |
| 2026-05-06 09:11 | 39.11452 | 6.38705 | 33987 ft | 391 kts | 221° |
| 2026-05-06 09:11 | 39.07467 | 6.33931 | 33991 ft | 391 kts | 221° |
| 2026-05-06 09:12 | 39.03480 | 6.29164 | 33988 ft | 391 kts | 221° |
| 2026-05-06 09:12 | 38.99495 | 6.24394 | 33989 ft | 391 kts | 222° |
| 2026-05-06 09:13 | 38.95732 | 6.19394 | 33970 ft | 392 kts | 226° |
| 2026-05-06 09:13 | 38.92082 | 6.14210 | 33990 ft | 391 kts | 226° |
| 2026-05-06 09:14 | 38.88421 | 6.09063 | 33987 ft | 390 kts | 225° |
| 2026-05-06 09:14 | 38.84680 | 6.03918 | 33989 ft | 398 kts | 225° |
| 2026-05-06 09:15 | 38.80876 | 5.98728 | 33989 ft | 400 kts | 225° |
| 2026-05-06 09:15 | 38.77070 | 5.93528 | 33989 ft | 400 kts | 225° |
| 2026-05-06 09:16 | 38.73264 | 5.88330 | 33977 ft | 396 kts | 226° |
| 2026-05-06 09:16 | 38.69546 | 5.83259 | 33980 ft | 388 kts | 226° |
| 2026-05-06 09:17 | 38.65857 | 5.78242 | 33978 ft | 386 kts | 225° |
| 2026-05-06 09:17 | 38.62171 | 5.73243 | 33990 ft | 386 kts | 225° |
| 2026-05-06 09:18 | 38.58467 | 5.68218 | 33986 ft | 394 kts | 227° |
| 2026-05-06 09:18 | 38.54648 | 5.63049 | 33987 ft | 405 kts | 227° |
| 2026-05-06 09:19 | 38.50761 | 5.57793 | 33974 ft | 411 kts | 227° |
| 2026-05-06 09:19 | 38.46834 | 5.52496 | 33984 ft | 410 kts | 226° |
| 2026-05-06 09:20 | 38.42907 | 5.47208 | 33977 ft | 410 kts | 226° |
| 2026-05-06 09:20 | 38.38981 | 5.41920 | 33972 ft | 411 kts | 226° |
| 2026-05-06 09:21 | 38.35051 | 5.36641 | 33979 ft | 410 kts | 226° |
| 2026-05-06 09:21 | 38.31113 | 5.31364 | 33982 ft | 414 kts | 228° |
| 2026-05-06 09:22 | 38.27108 | 5.25998 | 33980 ft | 420 kts | 227° |
| 2026-05-06 09:22 | 38.23071 | 5.20599 | 33978 ft | 421 kts | 227° |
| 2026-05-06 09:23 | 38.19019 | 5.15213 | 33981 ft | 422 kts | 227° |
| 2026-05-06 09:23 | 38.14962 | 5.09830 | 33975 ft | 422 kts | 227° |
| 2026-05-06 09:24 | 38.10913 | 5.04445 | 33977 ft | 422 kts | 227° |
| 2026-05-06 09:24 | 38.06862 | 4.99066 | 33974 ft | 421 kts | 227° |
| 2026-05-06 09:25 | 38.02811 | 4.93700 | 33970 ft | 421 kts | 228° |
| 2026-05-06 09:25 | 37.98775 | 4.88364 | 33979 ft | 422 kts | 228° |
| 2026-05-06 09:26 | 37.94706 | 4.82993 | 33979 ft | 422 kts | 228° |
| 2026-05-06 09:26 | 37.90638 | 4.77629 | 33978 ft | 422 kts | 228° |
| 2026-05-06 09:27 | 37.86566 | 4.72269 | 33973 ft | 422 kts | 228° |
| 2026-05-06 09:27 | 37.82487 | 4.66919 | 33972 ft | 423 kts | 227° |
| 2026-05-06 09:28 | 37.78408 | 4.61565 | 33972 ft | 423 kts | 227° |
| 2026-05-06 09:28 | 37.74329 | 4.56223 | 33984 ft | 422 kts | 228° |
| 2026-05-06 09:29 | 37.70263 | 4.50920 | 33968 ft | 419 kts | 228° |
| 2026-05-06 09:29 | 37.66894 | 4.46524 | 33973 ft | 419 kts | 229° |
| 2026-05-06 09:29 | 37.64742 | 4.42498 | 33977 ft | 414 kts | 246° |
| 2026-05-06 09:30 | 37.63955 | 4.40302 | 33972 ft | 415 kts | 246° |
| 2026-05-06 09:30 | 37.61623 | 4.33638 | 33972 ft | 416 kts | 247° |
| 2026-05-06 09:31 | 37.59307 | 4.26949 | 33972 ft | 416 kts | 247° |
| 2026-05-06 09:31 | 37.56975 | 4.20266 | 33969 ft | 416 kts | 246° |
| 2026-05-06 09:32 | 37.54642 | 4.13638 | 33972 ft | 411 kts | 247° |
| 2026-05-06 09:32 | 37.52327 | 4.07073 | 33969 ft | 409 kts | 247° |
| 2026-05-06 09:33 | 37.50013 | 4.00522 | 33970 ft | 409 kts | 247° |
| 2026-05-06 09:33 | 37.47697 | 3.93985 | 33973 ft | 409 kts | 247° |
| 2026-05-06 09:34 | 37.45393 | 3.87487 | 33969 ft | 409 kts | 247° |
| 2026-05-06 09:34 | 37.43070 | 3.80954 | 33974 ft | 409 kts | 247° |
| 2026-05-06 09:35 | 37.40754 | 3.74450 | 33962 ft | 407 kts | 247° |
| 2026-05-06 09:35 | 37.38441 | 3.67962 | 33967 ft | 407 kts | 247° |
| 2026-05-06 09:36 | 37.36127 | 3.61475 | 33969 ft | 407 kts | 247° |
| 2026-05-06 09:36 | 37.33805 | 3.54995 | 33967 ft | 406 kts | 246° |
| 2026-05-06 09:37 | 37.31479 | 3.48525 | 33964 ft | 406 kts | 246° |
| 2026-05-06 09:37 | 37.29147 | 3.42059 | 33967 ft | 406 kts | 246° |
| 2026-05-06 09:38 | 37.26813 | 3.35593 | 33967 ft | 406 kts | 246° |
| 2026-05-06 09:38 | 37.24484 | 3.29137 | 33967 ft | 406 kts | 246° |
| 2026-05-06 09:39 | 37.22149 | 3.22684 | 33969 ft | 406 kts | 246° |
| 2026-05-06 09:39 | 37.19807 | 3.16239 | 33969 ft | 406 kts | 246° |
| 2026-05-06 09:40 | 37.17459 | 3.09792 | 33970 ft | 406 kts | 246° |
| 2026-05-06 09:40 | 37.13938 | 3.00144 | 33966 ft | 404 kts | 246° |
| 2026-05-06 09:41 | 37.11596 | 2.93740 | 33967 ft | 404 kts | 246° |
| 2026-05-06 09:41 | 37.09258 | 2.87343 | 33963 ft | 404 kts | 246° |
| 2026-05-06 09:42 | 37.06911 | 2.80955 | 33963 ft | 404 kts | 246° |
| 2026-05-06 09:42 | 37.04560 | 2.74571 | 33966 ft | 404 kts | 246° |
| 2026-05-06 09:43 | 37.02224 | 2.68230 | 33967 ft | 404 kts | 246° |
| 2026-05-06 09:43 | 36.99873 | 2.61870 | 33966 ft | 402 kts | 246° |
| 2026-05-06 09:44 | 36.97527 | 2.55534 | 33963 ft | 401 kts | 246° |
| 2026-05-06 09:44 | 36.95178 | 2.49203 | 33964 ft | 401 kts | 246° |
| 2026-05-06 09:45 | 36.92830 | 2.42885 | 33961 ft | 401 kts | 246° |
| 2026-05-06 09:45 | 36.90482 | 2.36579 | 33961 ft | 400 kts | 246° |
| 2026-05-06 09:46 | 36.88120 | 2.30272 | 33961 ft | 400 kts | 246° |
| 2026-05-06 09:46 | 36.85698 | 2.24028 | 33960 ft | 399 kts | 243° |
| 2026-05-06 09:47 | 36.83050 | 2.17940 | 33961 ft | 399 kts | 242° |
| 2026-05-06 09:47 | 36.80341 | 2.11901 | 33961 ft | 399 kts | 242° |
| 2026-05-06 09:48 | 36.77664 | 2.05846 | 33961 ft | 398 kts | 242° |
| 2026-05-06 09:48 | 36.75032 | 1.99817 | 33963 ft | 398 kts | 243° |
| 2026-05-06 09:49 | 36.72378 | 1.93758 | 33946 ft | 398 kts | 243° |
| 2026-05-06 09:49 | 36.69722 | 1.87732 | 33960 ft | 395 kts | 242° |
| 2026-05-06 09:50 | 36.67087 | 1.81737 | 33961 ft | 394 kts | 243° |
| 2026-05-06 09:50 | 36.64455 | 1.75747 | 33961 ft | 394 kts | 242° |
| 2026-05-06 09:51 | 36.61817 | 1.69763 | 33961 ft | 394 kts | 242° |
| 2026-05-06 09:51 | 36.59172 | 1.63791 | 33961 ft | 394 kts | 242° |
| 2026-05-06 09:52 | 36.56520 | 1.57823 | 33961 ft | 394 kts | 242° |
| 2026-05-06 09:52 | 36.53877 | 1.51855 | 33978 ft | 394 kts | 242° |
| 2026-05-06 09:53 | 36.51231 | 1.45904 | 33963 ft | 393 kts | 242° |
| 2026-05-06 09:53 | 36.48577 | 1.39957 | 33953 ft | 393 kts | 242° |
| 2026-05-06 09:54 | 36.45923 | 1.34017 | 33967 ft | 393 kts | 242° |
| 2026-05-06 09:54 | 36.43271 | 1.28094 | 33966 ft | 392 kts | 242° |
| 2026-05-06 09:55 | 36.40625 | 1.22173 | 33969 ft | 392 kts | 242° |
| 2026-05-06 09:55 | 36.37974 | 1.16260 | 33968 ft | 392 kts | 242° |
| 2026-05-06 09:56 | 36.35319 | 1.10352 | 33967 ft | 392 kts | 242° |
| 2026-05-06 09:56 | 36.32659 | 1.04453 | 33966 ft | 392 kts | 242° |
| 2026-05-06 09:57 | 36.30000 | 0.98561 | 33964 ft | 392 kts | 242° |
| 2026-05-06 09:57 | 36.27339 | 0.92668 | 33961 ft | 392 kts | 242° |
| 2026-05-06 09:58 | 36.24675 | 0.86784 | 33951 ft | 391 kts | 242° |
| 2026-05-06 09:58 | 36.22040 | 0.80990 | 33957 ft | 387 kts | 242° |
| 2026-05-06 09:59 | 36.19401 | 0.75197 | 33964 ft | 386 kts | 242° |
| 2026-05-06 09:59 | 36.16763 | 0.69398 | 33960 ft | 387 kts | 242° |
| 2026-05-06 10:00 | 36.14125 | 0.63606 | 33962 ft | 386 kts | 242° |
| 2026-05-06 10:00 | 36.11485 | 0.57824 | 33961 ft | 386 kts | 242° |
| 2026-05-06 10:01 | 36.08838 | 0.52044 | 33959 ft | 386 kts | 242° |
| 2026-05-06 10:01 | 36.06190 | 0.46263 | 33959 ft | 386 kts | 242° |
| 2026-05-06 10:02 | 36.03539 | 0.40488 | 33959 ft | 387 kts | 242° |
| 2026-05-06 10:02 | 36.00883 | 0.34706 | 33958 ft | 387 kts | 242° |
| 2026-05-06 10:03 | 35.98223 | 0.28921 | 33956 ft | 387 kts | 241° |
| 2026-05-06 10:03 | 35.95554 | 0.23145 | 33956 ft | 387 kts | 241° |
| 2026-05-06 10:04 | 35.92898 | 0.17407 | 34125 ft | 388 kts | 241° |
| 2026-05-06 10:04 | 35.91566 | 0.14527 | 34369 ft | 386 kts | 242° |
| 2026-05-06 10:04 | 35.90233 | 0.11653 | 34621 ft | 385 kts | 241° |
| 2026-05-06 10:05 | 35.88905 | 0.08800 | 34859 ft | 383 kts | 242° |
| 2026-05-06 10:05 | 35.87583 | 0.05954 | 35088 ft | 381 kts | 242° |
| 2026-05-06 10:05 | 35.86266 | 0.03123 | 35327 ft | 380 kts | 242° |
| 2026-05-06 10:05 | 35.84954 | 0.00302 | 35530 ft | 378 kts | 242° |
| 2026-05-06 10:06 | 35.83649 | -0.02507 | 35744 ft | 377 kts | 242° |
| 2026-05-06 10:06 | 35.82346 | -0.05309 | 35904 ft | 377 kts | 242° |
| 2026-05-06 10:06 | 35.79742 | -0.10902 | 35956 ft | 376 kts | 242° |
| 2026-05-06 10:07 | 35.77139 | -0.16480 | 35955 ft | 375 kts | 242° |
| 2026-05-06 10:07 | 35.74534 | -0.22039 | 35946 ft | 372 kts | 242° |
| 2026-05-06 10:08 | 35.71971 | -0.27514 | 35957 ft | 367 kts | 242° |
| 2026-05-06 10:08 | 35.69425 | -0.32953 | 35954 ft | 367 kts | 242° |
| 2026-05-06 10:09 | 35.66875 | -0.38380 | 35950 ft | 366 kts | 242° |
| 2026-05-06 10:09 | 35.64319 | -0.43804 | 35948 ft | 367 kts | 242° |
| 2026-05-06 10:10 | 35.61758 | -0.49227 | 35947 ft | 367 kts | 242° |
| 2026-05-06 10:10 | 35.59199 | -0.54644 | 35947 ft | 366 kts | 242° |
| 2026-05-06 10:11 | 35.56640 | -0.60058 | 35947 ft | 367 kts | 242° |
| 2026-05-06 10:11 | 35.54094 | -0.65434 | 35947 ft | 367 kts | 242° |
| 2026-05-06 10:12 | 35.51507 | -0.70878 | 35951 ft | 367 kts | 242° |
| 2026-05-06 10:12 | 35.48946 | -0.76269 | 35944 ft | 361 kts | 242° |
| 2026-05-06 10:13 | 35.46436 | -0.81539 | 35961 ft | 355 kts | 242° |
| 2026-05-06 10:13 | 35.43963 | -0.86725 | 35963 ft | 354 kts | 242° |
| 2026-05-06 10:14 | 35.41478 | -0.91938 | 35969 ft | 354 kts | 242° |
| 2026-05-06 10:14 | 35.38992 | -0.97149 | 35972 ft | 354 kts | 242° |
| 2026-05-06 10:15 | 35.36495 | -1.02352 | 35972 ft | 354 kts | 242° |
| 2026-05-06 10:15 | 35.33996 | -1.07552 | 35975 ft | 354 kts | 242° |
| 2026-05-06 10:16 | 35.31495 | -1.12749 | 35972 ft | 354 kts | 242° |
| 2026-05-06 10:16 | 35.28986 | -1.17970 | 35972 ft | 359 kts | 242° |
| 2026-05-06 10:17 | 35.26445 | -1.23248 | 35974 ft | 361 kts | 242° |
| 2026-05-06 10:17 | 35.23895 | -1.28534 | 35935 ft | 360 kts | 242° |
| 2026-05-06 10:18 | 35.21390 | -1.33723 | 35978 ft | 350 kts | 242° |
| 2026-05-06 10:18 | 35.18917 | -1.38833 | 35977 ft | 349 kts | 242° |
| 2026-05-06 10:19 | 35.16461 | -1.43904 | 35978 ft | 349 kts | 242° |
| 2026-05-06 10:19 | 35.13969 | -1.49036 | 35975 ft | 349 kts | 242° |
| 2026-05-06 10:20 | 35.11507 | -1.54099 | 35982 ft | 349 kts | 241° |
| 2026-05-06 10:20 | 35.09023 | -1.59203 | 35976 ft | 350 kts | 241° |
| 2026-05-06 10:21 | 35.06531 | -1.64313 | 35975 ft | 350 kts | 241° |
| 2026-05-06 10:21 | 35.04040 | -1.69422 | 35977 ft | 350 kts | 241° |
| 2026-05-06 10:22 | 35.01949 | -1.73701 | 35979 ft | 350 kts | 241° |
| 2026-05-06 10:22 | 34.99447 | -1.78798 | 35979 ft | 350 kts | 241° |
| 2026-05-06 10:23 | 34.96969 | -1.83855 | 35966 ft | 348 kts | 241° |
| 2026-05-06 10:23 | 34.94343 | -1.88780 | 35976 ft | 346 kts | 239° |
| 2026-05-06 10:24 | 34.91610 | -1.93608 | 35976 ft | 346 kts | 238° |
| 2026-05-06 10:24 | 34.88877 | -1.98448 | 35974 ft | 347 kts | 238° |
| 2026-05-06 10:25 | 34.86164 | -2.03301 | 35975 ft | 347 kts | 239° |
| 2026-05-06 10:25 | 34.83453 | -2.08159 | 35973 ft | 347 kts | 238° |
| 2026-05-06 10:26 | 34.80740 | -2.13010 | 35972 ft | 347 kts | 238° |
| 2026-05-06 10:26 | 34.78022 | -2.17870 | 35971 ft | 347 kts | 238° |
| 2026-05-06 10:27 | 34.75302 | -2.22728 | 35970 ft | 347 kts | 238° |
| 2026-05-06 10:27 | 34.72572 | -2.27579 | 35968 ft | 347 kts | 238° |
| 2026-05-06 10:28 | 34.69856 | -2.32414 | 35962 ft | 344 kts | 238° |
| 2026-05-06 10:28 | 34.67167 | -2.37204 | 35966 ft | 342 kts | 238° |
| 2026-05-06 10:29 | 34.64479 | -2.41975 | 35957 ft | 342 kts | 238° |
| 2026-05-06 10:29 | 34.61804 | -2.46708 | 35950 ft | 342 kts | 238° |
| 2026-05-06 10:30 | 34.59108 | -2.51465 | 35955 ft | 342 kts | 238° |
| 2026-05-06 10:30 | 34.56418 | -2.56224 | 35951 ft | 342 kts | 238° |
| 2026-05-06 10:31 | 34.53725 | -2.60980 | 35939 ft | 342 kts | 238° |
| 2026-05-06 10:31 | 34.51029 | -2.65729 | 35942 ft | 342 kts | 238° |
| 2026-05-06 10:32 | 34.48329 | -2.70481 | 35947 ft | 342 kts | 238° |
| 2026-05-06 10:32 | 34.45628 | -2.75236 | 35942 ft | 342 kts | 238° |
| 2026-05-06 10:33 | 34.42924 | -2.79980 | 35937 ft | 342 kts | 238° |
| 2026-05-06 10:33 | 34.40227 | -2.84711 | 35940 ft | 341 kts | 238° |
| 2026-05-06 10:34 | 34.37527 | -2.89438 | 35950 ft | 341 kts | 238° |
| 2026-05-06 10:34 | 34.34827 | -2.94161 | 35944 ft | 341 kts | 238° |
| 2026-05-06 10:35 | 34.32120 | -2.98877 | 35945 ft | 341 kts | 238° |
| 2026-05-06 10:35 | 34.29413 | -3.03592 | 35943 ft | 341 kts | 238° |
| 2026-05-06 10:36 | 34.26707 | -3.08306 | 35950 ft | 341 kts | 238° |
| 2026-05-06 10:36 | 34.23999 | -3.13007 | 35952 ft | 341 kts | 238° |
| 2026-05-06 10:37 | 34.21295 | -3.17707 | 35949 ft | 341 kts | 238° |
| 2026-05-06 10:37 | 34.18588 | -3.22405 | 35950 ft | 341 kts | 238° |
| 2026-05-06 10:38 | 34.15879 | -3.27101 | 35947 ft | 341 kts | 237° |
| 2026-05-06 10:38 | 34.13169 | -3.31789 | 35953 ft | 341 kts | 237° |
| 2026-05-06 10:39 | 34.10459 | -3.36478 | 35953 ft | 340 kts | 237° |
| 2026-05-06 10:39 | 34.07744 | -3.41159 | 35953 ft | 341 kts | 237° |
| 2026-05-06 10:40 | 34.05024 | -3.45843 | 35960 ft | 341 kts | 237° |
| 2026-05-06 10:40 | 34.02326 | -3.50484 | 35955 ft | 340 kts | 237° |
| 2026-05-06 10:41 | 33.99608 | -3.55156 | 35960 ft | 340 kts | 237° |
| 2026-05-06 10:41 | 33.96893 | -3.59818 | 35964 ft | 340 kts | 237° |
| 2026-05-06 10:42 | 33.94173 | -3.64481 | 35959 ft | 341 kts | 237° |
| 2026-05-06 10:42 | 33.91449 | -3.69155 | 35965 ft | 341 kts | 237° |
| 2026-05-06 10:43 | 33.88719 | -3.73821 | 35939 ft | 340 kts | 237° |
| 2026-05-06 10:44 | 33.84629 | -3.80814 | 35964 ft | 341 kts | 237° |
| 2026-05-06 10:44 | 33.81895 | -3.85464 | 35980 ft | 340 kts | 237° |
| 2026-05-06 10:45 | 33.79169 | -3.90108 | 35980 ft | 339 kts | 237° |
| 2026-05-06 10:45 | 33.76454 | -3.94728 | 35985 ft | 339 kts | 237° |
| 2026-05-06 10:46 | 33.73734 | -3.99346 | 35975 ft | 338 kts | 237° |
| 2026-05-06 10:46 | 33.71014 | -4.03954 | 35972 ft | 338 kts | 237° |
| 2026-05-06 10:47 | 33.68287 | -4.08568 | 35977 ft | 339 kts | 237° |
| 2026-05-06 10:47 | 33.65562 | -4.13178 | 35985 ft | 338 kts | 236° |
| 2026-05-06 10:48 | 33.62833 | -4.17792 | 35980 ft | 340 kts | 236° |
| 2026-05-06 10:48 | 33.60096 | -4.22407 | 35969 ft | 339 kts | 236° |
| 2026-05-06 10:49 | 33.57358 | -4.27024 | 35984 ft | 339 kts | 236° |
| 2026-05-06 10:49 | 33.54625 | -4.31632 | 35985 ft | 339 kts | 236° |
| 2026-05-06 10:50 | 33.51902 | -4.36205 | 35985 ft | 339 kts | 236° |
| 2026-05-06 10:50 | 33.49158 | -4.40805 | 35978 ft | 339 kts | 236° |
| 2026-05-06 10:51 | 33.46410 | -4.45406 | 35980 ft | 340 kts | 236° |
| 2026-05-06 10:51 | 33.43668 | -4.50004 | 35978 ft | 339 kts | 236° |
| 2026-05-06 10:52 | 33.40927 | -4.54592 | 35983 ft | 339 kts | 236° |
| 2026-05-06 10:52 | 33.38186 | -4.59178 | 35984 ft | 338 kts | 236° |
| 2026-05-06 10:53 | 33.35443 | -4.63751 | 35979 ft | 338 kts | 236° |
| 2026-05-06 10:53 | 33.32703 | -4.68313 | 35980 ft | 338 kts | 236° |
| 2026-05-06 10:54 | 33.29969 | -4.72873 | 35995 ft | 337 kts | 236° |
| 2026-05-06 10:54 | 33.27231 | -4.77427 | 35991 ft | 337 kts | 236° |
| 2026-05-06 10:55 | 33.24485 | -4.81981 | 35989 ft | 338 kts | 236° |
| 2026-05-06 10:55 | 33.21735 | -4.86532 | 35989 ft | 338 kts | 236° |
| 2026-05-06 10:56 | 33.18988 | -4.91085 | 36001 ft | 338 kts | 236° |
| 2026-05-06 10:56 | 33.16244 | -4.95633 | 36006 ft | 338 kts | 236° |
| 2026-05-06 10:57 | 33.13493 | -5.00179 | 35995 ft | 338 kts | 236° |
| 2026-05-06 10:57 | 33.10756 | -5.04695 | 36003 ft | 338 kts | 236° |
| 2026-05-06 10:58 | 33.08000 | -5.09238 | 36006 ft | 338 kts | 236° |
| 2026-05-06 10:58 | 33.05242 | -5.13779 | 35980 ft | 338 kts | 236° |
| 2026-05-06 10:59 | 33.02491 | -5.18299 | 36003 ft | 337 kts | 236° |
| 2026-05-06 10:59 | 32.99732 | -5.22821 | 36000 ft | 337 kts | 236° |
| 2026-05-06 11:00 | 32.96975 | -5.27350 | 36012 ft | 338 kts | 236° |
| 2026-05-06 11:00 | 32.94214 | -5.31871 | 36000 ft | 337 kts | 236° |
| 2026-05-06 11:01 | 32.91457 | -5.36383 | 35995 ft | 337 kts | 236° |
| 2026-05-06 11:01 | 32.88698 | -5.40892 | 35994 ft | 337 kts | 236° |
| 2026-05-06 11:02 | 32.85939 | -5.45398 | 35993 ft | 337 kts | 236° |
| 2026-05-06 11:02 | 32.83175 | -5.49895 | 35984 ft | 337 kts | 236° |
| 2026-05-06 11:03 | 32.80407 | -5.54390 | 35983 ft | 337 kts | 236° |
| 2026-05-06 11:03 | 32.77646 | -5.58889 | 35982 ft | 337 kts | 236° |
| 2026-05-06 11:04 | 32.74883 | -5.63381 | 35979 ft | 337 kts | 236° |
| 2026-05-06 11:04 | 32.72108 | -5.67880 | 35972 ft | 337 kts | 236° |
| 2026-05-06 11:05 | 32.69335 | -5.72379 | 35987 ft | 338 kts | 236° |
| 2026-05-06 11:05 | 32.66564 | -5.76870 | 35982 ft | 337 kts | 235° |
| 2026-05-06 11:06 | 32.63790 | -5.81354 | 35980 ft | 337 kts | 235° |
| 2026-05-06 11:06 | 32.61019 | -5.85834 | 35968 ft | 337 kts | 236° |
| 2026-05-06 11:07 | 32.58243 | -5.90305 | 35965 ft | 337 kts | 236° |
| 2026-05-06 11:07 | 32.55465 | -5.94774 | 35966 ft | 337 kts | 235° |
| 2026-05-06 11:08 | 32.52686 | -5.99243 | 35968 ft | 337 kts | 235° |
| 2026-05-06 11:08 | 32.49906 | -6.03708 | 35969 ft | 337 kts | 235° |
| 2026-05-06 11:09 | 32.47130 | -6.08172 | 35914 ft | 336 kts | 236° |
| 2026-05-06 11:09 | 32.44369 | -6.12605 | 35970 ft | 337 kts | 235° |
| 2026-05-06 11:10 | 32.41587 | -6.17061 | 35972 ft | 336 kts | 235° |
| 2026-05-06 11:10 | 32.38804 | -6.21511 | 35969 ft | 337 kts | 235° |
| 2026-05-06 11:11 | 32.36009 | -6.25969 | 35975 ft | 337 kts | 235° |
| 2026-05-06 11:11 | 32.33671 | -6.29695 | 35960 ft | 337 kts | 235° |
| 2026-05-06 11:12 | 32.30883 | -6.34145 | 35960 ft | 336 kts | 235° |
| 2026-05-06 11:12 | 32.28094 | -6.38585 | 35962 ft | 336 kts | 235° |
| 2026-05-06 11:13 | 32.25322 | -6.42994 | 35958 ft | 337 kts | 235° |
| 2026-05-06 11:13 | 32.22531 | -6.47435 | 35984 ft | 337 kts | 235° |
| 2026-05-06 11:14 | 32.19730 | -6.51872 | 35974 ft | 337 kts | 234° |
| 2026-05-06 11:14 | 32.16935 | -6.56303 | 35933 ft | 336 kts | 235° |
| 2026-05-06 11:15 | 32.14129 | -6.60742 | 35966 ft | 338 kts | 235° |
| 2026-05-06 11:15 | 32.11318 | -6.65184 | 35976 ft | 338 kts | 235° |
| 2026-05-06 11:16 | 32.08503 | -6.69629 | 35974 ft | 338 kts | 235° |
| 2026-05-06 11:16 | 32.05689 | -6.74071 | 35975 ft | 338 kts | 235° |
| 2026-05-06 11:17 | 32.02870 | -6.78511 | 35971 ft | 338 kts | 235° |
| 2026-05-06 11:17 | 32.00055 | -6.82942 | 35973 ft | 338 kts | 235° |
| 2026-05-06 11:18 | 31.97236 | -6.87371 | 35985 ft | 338 kts | 235° |
| 2026-05-06 11:18 | 31.94416 | -6.91797 | 35979 ft | 338 kts | 235° |
| 2026-05-06 11:19 | 31.91595 | -6.96219 | 35978 ft | 338 kts | 235° |
| 2026-05-06 11:19 | 31.88775 | -7.00637 | 35975 ft | 337 kts | 235° |
| 2026-05-06 11:20 | 31.85956 | -7.05053 | 35980 ft | 339 kts | 235° |
| 2026-05-06 11:20 | 31.83125 | -7.09486 | 35988 ft | 339 kts | 234° |
| 2026-05-06 11:21 | 31.80304 | -7.13884 | 35988 ft | 339 kts | 234° |
| 2026-05-06 11:21 | 31.77463 | -7.18316 | 35987 ft | 340 kts | 234° |
| 2026-05-06 11:22 | 31.74617 | -7.22749 | 36013 ft | 340 kts | 234° |
| 2026-05-06 11:22 | 31.71773 | -7.27170 | 35995 ft | 339 kts | 234° |
| 2026-05-06 11:23 | 31.68930 | -7.31584 | 35994 ft | 339 kts | 234° |
| 2026-05-06 11:23 | 31.66083 | -7.36003 | 35994 ft | 339 kts | 234° |
| 2026-05-06 11:24 | 31.63235 | -7.40412 | 35999 ft | 339 kts | 234° |
| 2026-05-06 11:24 | 31.60387 | -7.44821 | 35997 ft | 339 kts | 234° |
| 2026-05-06 11:25 | 31.57541 | -7.49224 | 35956 ft | 339 kts | 234° |
| 2026-05-06 11:25 | 31.54686 | -7.53635 | 35997 ft | 340 kts | 234° |
| 2026-05-06 11:26 | 31.51825 | -7.58048 | 35999 ft | 340 kts | 234° |
| 2026-05-06 11:26 | 31.48954 | -7.62469 | 36002 ft | 341 kts | 234° |
| 2026-05-06 11:27 | 31.46079 | -7.66898 | 36004 ft | 341 kts | 234° |
| 2026-05-06 11:27 | 31.43209 | -7.71327 | 36003 ft | 341 kts | 234° |
| 2026-05-06 11:28 | 31.40350 | -7.75722 | 35999 ft | 342 kts | 234° |
| 2026-05-06 11:28 | 31.37468 | -7.80141 | 36008 ft | 342 kts | 234° |
| 2026-05-06 11:29 | 31.34590 | -7.84558 | 36007 ft | 341 kts | 234° |
| 2026-05-06 11:29 | 31.31704 | -7.88965 | 36008 ft | 341 kts | 234° |
| 2026-05-06 11:30 | 31.28816 | -7.93372 | 36004 ft | 342 kts | 234° |
| 2026-05-06 11:30 | 31.25927 | -7.97787 | 36002 ft | 343 kts | 234° |
| 2026-05-06 11:31 | 31.23029 | -8.02210 | 36003 ft | 343 kts | 234° |
| 2026-05-06 11:31 | 31.20128 | -8.06631 | 35998 ft | 343 kts | 234° |
| 2026-05-06 11:32 | 31.17235 | -8.11039 | 36000 ft | 340 kts | 234° |
| 2026-05-06 11:32 | 31.14343 | -8.15438 | 36000 ft | 343 kts | 234° |
| 2026-05-06 11:33 | 31.11436 | -8.19851 | 35988 ft | 342 kts | 234° |
| 2026-05-06 11:33 | 31.08555 | -8.24223 | 35991 ft | 341 kts | 234° |
| 2026-05-06 11:34 | 31.05656 | -8.28619 | 35992 ft | 342 kts | 234° |
| 2026-05-06 11:34 | 31.02766 | -8.32991 | 35980 ft | 342 kts | 234° |
| 2026-05-06 11:35 | 30.99860 | -8.37390 | 35974 ft | 343 kts | 233° |
| 2026-05-06 11:35 | 30.96962 | -8.41764 | 35971 ft | 335 kts | 233° |
| 2026-05-06 11:36 | 30.94084 | -8.46100 | 35975 ft | 342 kts | 233° |
| 2026-05-06 11:36 | 30.91177 | -8.50489 | 35961 ft | 343 kts | 233° |
| 2026-05-06 11:37 | 30.88271 | -8.54873 | 35962 ft | 342 kts | 233° |
| 2026-05-06 11:37 | 30.85349 | -8.59274 | 35965 ft | 344 kts | 233° |
| 2026-05-06 11:38 | 30.82415 | -8.63672 | 35960 ft | 344 kts | 234° |
| 2026-05-06 11:38 | 30.79478 | -8.68072 | 35959 ft | 344 kts | 233° |
| 2026-05-06 11:39 | 30.76554 | -8.72459 | 35964 ft | 343 kts | 233° |
| 2026-05-06 11:39 | 30.73618 | -8.76859 | 35950 ft | 345 kts | 233° |
| 2026-05-06 11:40 | 30.70674 | -8.81255 | 35943 ft | 345 kts | 233° |
| 2026-05-06 11:40 | 30.67748 | -8.85620 | 35944 ft | 345 kts | 233° |
| 2026-05-06 11:41 | 30.64779 | -8.90047 | 35900 ft | 345 kts | 233° |
| 2026-05-06 11:41 | 30.61848 | -8.94417 | 35934 ft | 346 kts | 233° |
| 2026-05-06 11:42 | 30.58867 | -8.98853 | 35936 ft | 346 kts | 233° |
| 2026-05-06 11:42 | 30.55923 | -9.03230 | 35938 ft | 346 kts | 233° |
| 2026-05-06 11:43 | 30.52939 | -9.07670 | 35933 ft | 346 kts | 233° |
| 2026-05-06 11:43 | 30.49973 | -9.12080 | 35931 ft | 347 kts | 233° |
| 2026-05-06 11:44 | 30.45506 | -9.18692 | 35929 ft | 347 kts | 233° |
| 2026-05-06 11:44 | 30.42525 | -9.23099 | 35929 ft | 347 kts | 233° |
| 2026-05-06 11:45 | 30.39539 | -9.27504 | 35932 ft | 347 kts | 233° |
| 2026-05-06 11:45 | 30.36553 | -9.31902 | 35931 ft | 348 kts | 233° |
| 2026-05-06 11:46 | 30.33569 | -9.36306 | 35934 ft | 347 kts | 233° |
| 2026-05-06 11:46 | 30.31097 | -9.41080 | 35922 ft | 348 kts | 244° |
| 2026-05-06 11:47 | 30.29118 | -9.46144 | 35920 ft | 348 kts | 244° |
| 2026-05-06 11:47 | 30.27113 | -9.51242 | 35923 ft | 348 kts | 244° |
| 2026-05-06 11:48 | 30.25098 | -9.56338 | 35928 ft | 348 kts | 243° |
| 2026-05-06 11:48 | 30.23076 | -9.61424 | 35950 ft | 348 kts | 243° |
| 2026-05-06 11:49 | 30.21056 | -9.66513 | 35944 ft | 348 kts | 243° |
| 2026-05-06 11:49 | 30.19036 | -9.71605 | 35955 ft | 348 kts | 243° |
| 2026-05-06 11:50 | 30.17010 | -9.76690 | 35956 ft | 348 kts | 243° |
| 2026-05-06 11:50 | 30.14985 | -9.81771 | 35957 ft | 348 kts | 243° |
| 2026-05-06 11:51 | 30.12959 | -9.86857 | 35964 ft | 349 kts | 243° |
| 2026-05-06 11:51 | 30.10929 | -9.91953 | 35964 ft | 349 kts | 243° |
| 2026-05-06 11:52 | 30.08894 | -9.97044 | 35967 ft | 349 kts | 243° |
| 2026-05-06 11:52 | 30.06856 | -10.02133 | 35969 ft | 349 kts | 243° |
| 2026-05-06 11:53 | 30.04815 | -10.07221 | 35972 ft | 349 kts | 243° |
| 2026-05-06 11:53 | 30.02779 | -10.12306 | 35972 ft | 349 kts | 243° |
| 2026-05-06 11:54 | 30.00733 | -10.17393 | 35975 ft | 349 kts | 243° |
| 2026-05-06 11:54 | 29.98684 | -10.22481 | 35977 ft | 351 kts | 243° |
| 2026-05-06 11:55 | 29.96623 | -10.27585 | 35972 ft | 351 kts | 243° |
| 2026-05-06 11:55 | 29.94572 | -10.32660 | 35980 ft | 352 kts | 243° |
| 2026-05-06 11:56 | 29.92513 | -10.37769 | 35983 ft | 352 kts | 243° |
| 2026-05-06 11:56 | 29.90444 | -10.42878 | 35986 ft | 352 kts | 243° |
| 2026-05-06 11:57 | 29.88370 | -10.47981 | 35983 ft | 352 kts | 243° |
| 2026-05-06 11:57 | 29.86299 | -10.53084 | 35983 ft | 352 kts | 243° |
| 2026-05-06 11:58 | 29.84228 | -10.58187 | 35994 ft | 352 kts | 243° |
| 2026-05-06 11:58 | 29.82148 | -10.63302 | 35986 ft | 353 kts | 243° |
| 2026-05-06 11:59 | 29.80058 | -10.68421 | 35986 ft | 353 kts | 243° |
| 2026-05-06 11:59 | 29.77965 | -10.73541 | 35994 ft | 353 kts | 243° |
| 2026-05-06 12:00 | 29.76227 | -10.77791 | 35997 ft | 353 kts | 243° |
| 2026-05-06 12:00 | 29.74135 | -10.82905 | 35997 ft | 353 kts | 243° |
| 2026-05-06 12:01 | 29.72045 | -10.88016 | 36002 ft | 353 kts | 243° |
| 2026-05-06 12:01 | 29.69948 | -10.93122 | 36002 ft | 353 kts | 243° |
| 2026-05-06 12:02 | 29.67840 | -10.98237 | 36002 ft | 354 kts | 243° |
| 2026-05-06 12:02 | 29.65732 | -11.03362 | 36008 ft | 355 kts | 243° |
| 2026-05-06 12:03 | 29.63623 | -11.08494 | 36006 ft | 355 kts | 243° |
| 2026-05-06 12:03 | 29.61504 | -11.13627 | 36007 ft | 355 kts | 243° |
| 2026-05-06 12:04 | 29.59381 | -11.18758 | 36010 ft | 356 kts | 243° |
| 2026-05-06 12:04 | 29.57264 | -11.23890 | 36010 ft | 355 kts | 243° |
| 2026-05-06 12:05 | 29.55141 | -11.29016 | 36011 ft | 355 kts | 243° |
| 2026-05-06 12:05 | 29.53015 | -11.34142 | 36014 ft | 356 kts | 243° |
| 2026-05-06 12:06 | 29.50884 | -11.39283 | 36012 ft | 357 kts | 243° |
| 2026-05-06 12:06 | 29.48761 | -11.44391 | 36013 ft | 357 kts | 243° |
| 2026-05-06 12:07 | 29.46619 | -11.49533 | 36013 ft | 357 kts | 243° |
| 2026-05-06 12:07 | 29.44471 | -11.54668 | 36013 ft | 357 kts | 243° |
| 2026-05-06 12:08 | 29.42333 | -11.59805 | 36012 ft | 357 kts | 243° |
| 2026-05-06 12:08 | 29.40189 | -11.64942 | 36017 ft | 357 kts | 242° |
| 2026-05-06 12:09 | 29.38030 | -11.70067 | 36016 ft | 357 kts | 242° |
| 2026-05-06 12:09 | 29.35875 | -11.75194 | 36022 ft | 357 kts | 242° |
| 2026-05-06 12:10 | 29.33718 | -11.80321 | 36020 ft | 357 kts | 242° |
| 2026-05-06 12:10 | 29.31565 | -11.85448 | 36022 ft | 357 kts | 242° |
| 2026-05-06 12:11 | 29.29406 | -11.90574 | 36025 ft | 357 kts | 242° |
| 2026-05-06 12:11 | 29.27241 | -11.95695 | 36024 ft | 357 kts | 242° |
| 2026-05-06 12:12 | 29.25094 | -12.00776 | 36024 ft | 357 kts | 242° |
| 2026-05-06 12:12 | 29.22935 | -12.05896 | 36027 ft | 358 kts | 242° |
| 2026-05-06 12:13 | 29.20764 | -12.11032 | 36024 ft | 359 kts | 242° |
| 2026-05-06 12:13 | 29.18587 | -12.16172 | 36024 ft | 359 kts | 242° |
| 2026-05-06 12:14 | 29.16407 | -12.21309 | 36030 ft | 359 kts | 242° |
| 2026-05-06 12:14 | 29.14226 | -12.26447 | 36030 ft | 359 kts | 242° |
| 2026-05-06 12:15 | 29.12028 | -12.31572 | 36030 ft | 359 kts | 241° |
| 2026-05-06 12:15 | 29.09706 | -12.36619 | 36030 ft | 358 kts | 240° |
| 2026-05-06 12:16 | 29.07334 | -12.41636 | 36050 ft | 359 kts | 240° |
| 2026-05-06 12:16 | 29.04954 | -12.46669 | 36030 ft | 360 kts | 240° |
| 2026-05-06 12:17 | 29.02983 | -12.51935 | 36036 ft | 363 kts | 249° |
| 2026-05-06 12:17 | 29.01431 | -12.57384 | 36035 ft | 363 kts | 249° |
| 2026-05-06 12:18 | 28.99866 | -12.62870 | 36035 ft | 363 kts | 249° |
| 2026-05-06 12:18 | 28.98296 | -12.68358 | 36035 ft | 363 kts | 249° |
| 2026-05-06 12:19 | 28.96723 | -12.73840 | 36035 ft | 363 kts | 248° |
| 2026-05-06 12:19 | 28.95151 | -12.79326 | 36039 ft | 364 kts | 249° |
| 2026-05-06 12:20 | 28.93572 | -12.84828 | 36041 ft | 365 kts | 249° |
| 2026-05-06 12:20 | 28.91988 | -12.90334 | 36041 ft | 365 kts | 248° |
| 2026-05-06 12:21 | 28.90400 | -12.95839 | 36036 ft | 365 kts | 248° |
| 2026-05-06 12:21 | 28.88810 | -13.01348 | 36040 ft | 365 kts | 248° |
| 2026-05-06 12:22 | 28.87212 | -13.06854 | 36040 ft | 365 kts | 248° |
| 2026-05-06 12:22 | 28.85616 | -13.12354 | 36040 ft | 365 kts | 248° |
| 2026-05-06 12:23 | 28.84016 | -13.17869 | 36041 ft | 367 kts | 248° |
| 2026-05-06 12:23 | 28.82409 | -13.23401 | 36041 ft | 367 kts | 248° |
| 2026-05-06 12:24 | 28.80797 | -13.28930 | 36043 ft | 367 kts | 248° |
| 2026-05-06 12:24 | 28.79183 | -13.34458 | 36043 ft | 368 kts | 248° |
| 2026-05-06 12:25 | 28.77570 | -13.39986 | 36043 ft | 368 kts | 248° |
| 2026-05-06 12:25 | 28.75953 | -13.45513 | 36043 ft | 368 kts | 248° |
| 2026-05-06 12:26 | 28.74332 | -13.51042 | 36049 ft | 369 kts | 248° |
| 2026-05-06 12:26 | 28.72712 | -13.56557 | 36043 ft | 370 kts | 248° |
| 2026-05-06 12:27 | 28.71072 | -13.62117 | 36045 ft | 370 kts | 248° |
| 2026-05-06 12:27 | 28.69431 | -13.67677 | 36047 ft | 370 kts | 248° |
| 2026-05-06 12:28 | 28.67788 | -13.73237 | 36049 ft | 370 kts | 248° |
| 2026-05-06 12:28 | 28.66144 | -13.78794 | 36050 ft | 370 kts | 248° |
| 2026-05-06 12:29 | 28.64505 | -13.84356 | 36052 ft | 371 kts | 248° |
| 2026-05-06 12:29 | 28.62845 | -13.89935 | 36052 ft | 374 kts | 248° |
| 2026-05-06 12:30 | 28.61175 | -13.95544 | 36052 ft | 375 kts | 248° |
| 2026-05-06 12:30 | 28.59508 | -14.01162 | 36052 ft | 375 kts | 248° |
| 2026-05-06 12:31 | 28.57833 | -14.06774 | 36040 ft | 375 kts | 248° |
| 2026-05-06 12:31 | 28.56148 | -14.12386 | 36040 ft | 375 kts | 248° |
| 2026-05-06 12:32 | 28.54465 | -14.17999 | 36040 ft | 375 kts | 248° |
| 2026-05-06 12:32 | 28.52782 | -14.23617 | 36043 ft | 378 kts | 248° |
| 2026-05-06 12:33 | 28.51061 | -14.29329 | 36041 ft | 383 kts | 248° |
| 2026-05-06 12:33 | 28.49338 | -14.35071 | 36040 ft | 384 kts | 248° |
| 2026-05-06 12:34 | 28.47611 | -14.40818 | 36040 ft | 384 kts | 248° |
| 2026-05-06 12:34 | 28.45887 | -14.46524 | 36040 ft | 379 kts | 248° |
| 2026-05-06 12:35 | 28.44172 | -14.52172 | 36046 ft | 378 kts | 248° |